FNHU/NOV METAR and TAF weather

Enter ICAO airport designator
Station Type Date Time Source
FNHU METAR 2020/01/19 16:00 UTC NOAA

FNHU 191600Z 21005KT 9999 SCT015 27/14 Q1017


Station Type Date Time Source
FNHU Decoded METAR 2020/01/19 16:00 UTC NOAA

Huambo Nova Lisboa , Angola (FNHU) 12-48S 015-45E 1701M
Jan 19, 2020 - 11:00 AM EST / 2020.01.19 1600 UTC
Wind: from the SSW (210 degrees) at 6 MPH (5 KT):0
Visibility: greater than 7 mile(s):0
Sky conditions: partly cloudy
Temperature: 80 F (27 C)
Dew Point: 57 F (14 C)
Relative Humidity: 44%
Pressure (altimeter): 30.03 in. Hg (1017 hPa)
ob: FNHU 191600Z 21005KT 9999 SCT015 27/14 Q1017
cycle: 16

Station Type Date Time Source
FNHU TAF 2020/01/19 12:45 UTC NOAA

TAF FNHU 191045Z 1912/1924 23008KT CAVOK
BECMG 1920/1922 VRB03KT 8000 SCT015

Example: see airport list